Time;durP1;ratioP1;P1;durP2;ratioP2;P2;SDS_P1;SDS_P2;PMS_P1;PMS_P2;Temp;Humidity;BMP_temperature;BMP_pressure;BME280_temperature;BME280_humidity;BME280_pressure;Samples;Min_cycle;Max_cycle;Signal;HPM_P1;HPM_P2
2021/06/30 00:00:50;;;;;;;;;;;15.70;99.90;;;14.55;100.00;95405.06;10430041;28;1982;-81
2021/06/30 00:06:02;;;;;;;;;;;15.60;99.90;;;14.51;100.00;95404.09;10437444;28;2133;-79
2021/06/30 00:11:05;;;;;;;;;;;15.60;99.90;;;14.47;100.00;95397.69;10442134;28;2042;-78
2021/06/30 00:16:10;;;;;;;;;;;15.60;99.90;;;14.48;100.00;95387.69;10412058;28;2093;-79
2021/06/30 00:21:13;;;;;;;;;;;15.50;99.90;;;14.51;100.00;95377.06;10424398;28;2349;-80
2021/06/30 00:26:16;;;;;;;;;;;15.50;99.90;;;14.54;100.00;95395.34;10413870;28;2126;-79
2021/06/30 00:31:23;;;;;;;;;;;15.60;99.90;;;14.53;100.00;95380.25;10428226;28;2113;-81
2021/06/30 00:36:34;;;;;;;;;;;15.60;99.90;;;14.49;100.00;95384.66;10415215;28;2052;-80
2021/06/30 00:41:37;;;;;;;;;;;15.50;99.90;;;14.55;100.00;95388.84;10423986;28;2040;-79
2021/06/30 00:46:39;;;;;;;;;;;15.60;99.90;;;14.56;100.00;95379.63;10400060;28;2183;-83
2021/06/30 00:51:42;;;;;;;;;;;15.70;99.90;;;14.55;100.00;95383.44;10432301;28;2122;-81
2021/06/30 00:56:45;;;;;;;;;;;15.60;99.90;;;14.53;100.00;95377.53;10428057;28;2135;-80
2021/06/30 01:01:53;;;;;;;;;;;15.60;99.90;;;14.51;100.00;95373.56;10424919;28;2100;-78
2021/06/30 01:07:02;;;;;;;;;;;15.60;99.90;;;14.56;100.00;95386.94;10438936;28;2149;-79
2021/06/30 01:12:26;;;;;;;;;;;15.60;99.90;;;14.56;100.00;95385.03;10413489;28;2097;-78
2021/06/30 01:22:58;;;;;;;;;;;15.60;99.90;;;14.65;100.00;95400.53;10421531;28;2479;-80
2021/06/30 01:28:01;;;;;;;;;;;15.70;99.90;;;14.60;100.00;95396.84;10437587;28;2112;-82
2021/06/30 01:39:08;;;;;;;;;;;15.70;99.90;;;14.59;100.00;95410.69;10429734;28;2234;-81
2021/06/30 01:44:11;;;;;;;;;;;15.70;99.90;;;14.54;100.00;95418.91;10433764;28;2037;-81
2021/06/30 01:49:24;;;;;;;;;;;15.60;99.90;;;14.38;100.00;95429.25;10419179;28;2081;-79
2021/06/30 01:54:27;;;;;;;;;;;15.50;99.90;;;14.28;100.00;95434.91;10412488;28;2050;-80
2021/06/30 01:59:35;;;;;;;;;;;15.40;99.90;;;14.27;100.00;95441.41;10440766;28;2045;-79
2021/06/30 02:04:47;;;;;;;;;;;15.30;99.90;;;14.28;100.00;95432.97;10414000;28;2268;-80
2021/06/30 02:09:50;;;;;;;;;;;15.30;99.90;;;14.31;100.00;95436.97;10444573;28;2206;-79
2021/06/30 02:14:53;;;;;;;;;;;15.30;99.90;;;14.31;100.00;95450.50;10446760;28;2118;-79
2021/06/30 02:19:55;;;;;;;;;;;15.30;99.90;;;14.44;100.00;95467.78;10451838;28;2038;-80
2021/06/30 02:25:03;;;;;;;;;;;15.40;99.90;;;14.34;100.00;95463.41;10447328;28;2226;-82
2021/06/30 02:30:14;;;;;;;;;;;15.40;99.90;;;14.31;100.00;95458.59;10430555;28;1305;-79
2021/06/30 02:35:17;;;;;;;;;;;15.40;99.90;;;14.14;100.00;95463.88;10427365;28;2179;-78
2021/06/30 02:40:20;;;;;;;;;;;15.20;99.90;;;13.96;100.00;95477.19;10449268;28;1668;-77
2021/06/30 02:45:24;;;;;;;;;;;15.10;99.90;;;13.82;100.00;95468.31;10438388;28;2226;-79
2021/06/30 02:50:31;;;;;;;;;;;14.90;99.90;;;13.74;100.00;95482.50;10439074;28;2100;-78
2021/06/30 02:55:44;;;;;;;;;;;14.80;99.90;;;13.74;100.00;95488.72;10437513;28;2121;-78
2021/06/30 03:00:47;;;;;;;;;;;14.70;99.90;;;13.65;100.00;95503.22;10427305;28;2113;-80
2021/06/30 03:05:51;;;;;;;;;;;14.60;99.90;;;13.53;100.00;95507.19;10417938;28;2147;-80
2021/06/30 03:10:54;;;;;;;;;;;14.60;99.90;;;13.42;100.00;95511.22;10429519;28;2102;-78
2021/06/30 03:15:57;;;;;;;;;;;14.40;99.90;;;13.32;100.00;95516.78;10420722;28;2159;-79
2021/06/30 03:21:00;;;;;;;;;;;14.30;99.90;;;13.34;100.00;95525.38;10428672;28;2206;-81
2021/06/30 03:26:03;;;;;;;;;;;14.30;99.90;;;13.31;100.00;95519.78;10420519;28;1910;-81
2021/06/30 03:31:07;;;;;;;;;;;14.20;99.90;;;13.18;100.00;95507.81;10492241;23;1827;-82
2021/06/30 03:41:42;;;;;;;;;;;14.10;99.90;;;12.99;100.00;95538.34;10506406;28;1626;-79
2021/06/30 03:47:15;;;;;;;;;;;14.00;99.90;;;12.79;100.00;95535.97;10528341;28;1952;-80
2021/06/30 03:52:17;;;;;;;;;;;13.90;99.90;;;12.61;100.00;95542.97;10517325;28;2096;-81
2021/06/30 03:57:30;;;;;;;;;;;13.70;99.90;;;12.61;100.00;95531.38;10529490;28;1768;-80
2021/06/30 04:02:37;;;;;;;;;;;13.70;99.90;;;12.58;100.00;95545.44;10532234;28;2080;-80
2021/06/30 04:07:55;;;;;;;;;;;13.70;99.90;;;12.47;100.00;95543.97;10530854;28;2224;-78
2021/06/30 04:13:16;;;;;;;;;;;13.60;99.90;;;12.48;100.00;95535.63;10509888;28;2078;-82
2021/06/30 04:18:57;;;;;;;;;;;13.50;99.90;;;12.54;100.00;95536.34;10513004;28;2083;-80
2021/06/30 04:24:31;;;;;;;;;;;13.50;99.90;;;12.57;100.00;95524.97;10505064;28;2100;-79
2021/06/30 04:29:34;;;;;;;;;;;13.50;99.90;;;12.62;100.00;95523.00;10520596;28;2100;-80
2021/06/30 04:34:40;;;;;;;;;;;13.60;99.90;;;12.64;100.00;95515.41;10507333;28;2072;-81
2021/06/30 04:39:59;;;;;;;;;;;13.60;99.90;;;12.69;100.00;95514.53;10500299;28;2123;-81
2021/06/30 04:45:31;;;;;;;;;;;13.60;99.90;;;12.75;100.00;95515.25;10497153;28;2011;-80
2021/06/30 05:02:05;;;;;;;;;;;14.00;99.90;;;13.46;99.85;95519.50;10522180;28;2099;-80
2021/06/30 05:07:24;;;;;;;;;;;14.20;99.90;;;13.73;98.35;95514.13;10512351;28;2028;-80
2021/06/30 05:12:46;;;;;;;;;;;14.50;99.90;;;13.86;95.89;95527.94;10523260;28;2274;-82
2021/06/30 05:18:03;;;;;;;;;;;14.70;99.90;;;14.24;92.52;95534.72;10526030;28;1978;-81
2021/06/30 05:23:18;;;;;;;;;;;15.00;99.90;;;14.24;93.10;95523.09;10510772;28;2183;-81
2021/06/30 05:28:39;;;;;;;;;;;15.10;99.90;;;14.23;90.68;95519.59;10501600;28;1874;-81
2021/06/30 05:33:54;;;;;;;;;;;15.10;99.90;;;14.17;92.57;95520.00;10519981;28;1267;-81
2021/06/30 05:39:12;;;;;;;;;;;15.10;99.90;;;14.22;91.81;95515.31;10518525;28;1992;-80
2021/06/30 05:44:41;;;;;;;;;;;;;;;;;;;;;
2021/06/30 05:50:04;;;;;;;;;;;15.20;99.90;;;14.29;90.06;95502.16;10533572;28;1291;-82
2021/06/30 05:55:22;;;;;;;;;;;15.20;99.90;;;14.41;89.84;95507.06;10517981;28;2043;-80
2021/06/30 06:00:54;;;;;;;;;;;15.20;99.90;;;14.47;88.00;95503.16;10517544;28;2147;-79
2021/06/30 06:06:16;;;;;;;;;;;;;;;;;;;;;
2021/06/30 06:22:30;;;;;;;;;;;16.10;99.90;;;15.40;83.01;95497.16;10518142;28;2050;-81
2021/06/30 06:27:57;;;;;;;;;;;16.20;99.90;;;14.96;85.05;95508.81;10402858;28;2125;-82
2021/06/30 06:33:52;;;;;;;;;;;16.00;99.90;;;15.45;82.80;95513.25;10414092;28;1930;-82
2021/06/30 06:44:41;;;;;;;;;;;16.80;99.90;;;16.05;78.64;95509.25;10434827;28;1721;-81
2021/06/30 06:49:53;;;;;;;;;;;16.90;99.90;;;15.86;78.42;95504.88;10419916;28;2112;-83
2021/06/30 06:54:56;;;;;;;;;;;16.80;99.90;;;15.36;81.80;95515.13;10411138;28;2085;-81
2021/06/30 06:59:59;;;;;;;;;;;16.50;99.90;;;15.44;82.72;95511.66;10538833;28;2146;-83
2021/06/30 07:05:14;;;;;;;;;;;16.30;99.90;;;16.44;76.74;95500.25;10548581;28;2177;-84
2021/06/30 07:10:48;;;;;;;;;;;16.90;99.90;;;16.01;76.63;95503.66;10528843;28;2106;-83
2021/06/30 07:15:59;;;;;;;;;;;17.00;99.90;;;15.99;76.00;95516.72;10534876;28;2308;-84
2021/06/30 07:21:03;;;;;;;;;;;16.80;99.90;;;16.23;73.82;95512.81;10550011;28;2060;-83
2021/06/30 07:26:10;;;;;;;;;;;16.90;99.90;;;16.97;69.14;95504.59;10530844;28;2070;-83
2021/06/30 07:31:25;;;;;;;;;;;17.30;99.90;;;17.39;65.39;95513.00;10540534;28;2164;-82
2021/06/30 07:36:29;;;;;;;;;;;17.90;99.90;;;18.02;63.75;95501.31;10537407;28;2120;-82
2021/06/30 07:41:37;;;;;;;;;;;18.30;99.90;;;18.06;60.86;95515.03;10543857;28;2361;-80
2021/06/30 07:46:40;;;;;;;;;;;18.80;99.90;;;18.50;61.15;95507.44;10539265;28;2730;-83
2021/06/30 07:51:43;;;;;;;;;;;18.90;99.90;;;18.41;62.20;95493.09;10553208;28;1982;-82
2021/06/30 07:56:52;;;;;;;;;;;19.00;99.90;;;17.86;60.64;95502.97;10538092;28;2111;-81
2021/06/30 08:02:02;;;;;;;;;;;18.90;99.90;;;18.50;59.69;95491.09;10524864;28;2208;-82
2021/06/30 08:07:05;;;;;;;;;;;19.00;99.90;;;18.08;61.02;95501.94;10532899;28;2061;-78
2021/06/30 08:12:10;;;;;;;;;;;19.00;99.90;;;18.99;54.39;95496.84;10544720;28;2117;-81
2021/06/30 08:17:13;;;;;;;;;;;19.40;99.90;;;19.11;54.60;95503.16;10523816;28;2088;-80
2021/06/30 08:22:17;;;;;;;;;;;19.90;99.90;;;19.00;54.24;95504.69;10536986;28;2069;-82
2021/06/30 08:27:25;;;;;;;;;;;19.70;99.90;;;18.96;55.71;95508.41;10565607;28;1985;-84
2021/06/30 08:32:57;;;;;;;;;;;;;;;;;;;;;
2021/06/30 08:43:57;;;;;;;;;;;19.30;99.90;;;18.92;57.30;95519.19;10531238;28;2244;-81
2021/06/30 08:49:04;;;;;;;;;;;19.60;99.90;;;19.04;53.37;95521.16;10529503;28;2162;-79
2021/06/30 08:54:09;;;;;;;;;;;19.70;99.90;;;18.65;54.57;95512.31;10533019;28;2045;-79
2021/06/30 09:11:37;;;;;;;;;;;20.80;99.90;;;20.08;52.88;95523.63;10529318;23;2049;-79
2021/06/30 09:22:30;;;;;;;;;;;20.70;99.90;;;19.65;49.83;95545.94;10505775;28;2148;-79
2021/06/30 09:28:01;;;;;;;;;;;20.50;99.90;;;20.48;50.30;95544.81;10537400;28;2395;-81
2021/06/30 09:33:05;;;;;;;;;;;20.90;99.90;;;21.39;48.18;95541.69;10523075;28;1634;-79
2021/06/30 09:38:24;;;;;;;;;;;21.20;99.90;;;20.68;47.34;95549.38;10548409;28;2060;-81
2021/06/30 09:43:37;;;;;;;;;;;21.60;99.90;;;19.56;50.52;95554.19;10547638;28;2249;-79
2021/06/30 09:48:42;;;;;;;;;;;20.80;99.90;;;19.30;48.55;95551.72;10529096;28;1914;-86
2021/06/30 09:53:50;;;;;;;;;;;20.40;99.90;;;18.82;51.21;95544.88;10559221;28;2224;-78
2021/06/30 09:58:59;;;;;;;;;;;19.80;99.90;;;19.25;53.12;95543.72;10556583;28;2086;-80
2021/06/30 10:04:02;;;;;;;;;;;19.80;99.90;;;20.06;50.05;95549.66;10544488;28;1281;-79
2021/06/30 10:09:15;;;;;;;;;;;20.60;99.90;;;20.91;47.03;95544.19;10539103;28;2123;-82
2021/06/30 10:14:19;;;;;;;;;;;21.20;99.90;;;21.31;47.67;95532.47;10537234;28;2145;-81
2021/06/30 10:19:22;;;;;;;;;;;21.70;99.90;;;21.23;46.15;95522.44;10521469;28;2150;-78
2021/06/30 10:24:29;;;;;;;;;;;22.00;99.90;;;20.89;46.88;95519.16;10543736;28;1982;-80
2021/06/30 10:29:33;;;;;;;;;;;21.80;99.90;;;20.14;46.94;95521.47;10532209;28;2223;-79
2021/06/30 10:34:38;;;;;;;;;;;21.30;99.90;;;20.30;48.81;95522.41;10533392;28;2057;-81
2021/06/30 10:39:41;;;;;;;;;;;21.00;99.90;;;20.57;49.01;95522.84;10548557;28;2277;-81
2021/06/30 10:44:52;;;;;;;;;;;21.20;99.90;;;20.00;49.76;95518.28;10555452;28;2121;-79
2021/06/30 10:50:02;;;;;;;;;;;21.10;99.90;;;19.95;48.00;95535.66;10538461;28;1928;-78
2021/06/30 10:55:10;;;;;;;;;;;20.80;99.90;;;19.96;46.66;95534.53;10537334;28;2159;-80
2021/06/30 11:00:16;;;;;;;;;;;20.80;99.90;;;20.35;47.38;95533.06;10547451;28;2069;-79
2021/06/30 11:05:27;;;;;;;;;;;20.60;99.90;;;20.93;46.24;95511.03;10528601;28;1994;-79
2021/06/30 11:10:32;;;;;;;;;;;21.20;99.90;;;21.69;44.87;95514.75;10519918;28;2116;-80
2021/06/30 11:15:35;;;;;;;;;;;22.00;99.90;;;20.94;45.13;95523.59;10548693;28;2221;-80
2021/06/30 11:20:38;;;;;;;;;;;21.90;99.90;;;20.30;47.41;95537.97;10535634;28;1304;-80
2021/06/30 11:25:41;;;;;;;;;;;21.40;99.90;;;20.56;46.63;95541.19;10552467;28;1990;-80
2021/06/30 11:30:43;;;;;;;;;;;21.30;99.90;;;19.62;48.49;95536.50;10526103;28;2075;-79
2021/06/30 11:35:47;;;;;;;;;;;20.80;99.90;;;20.25;48.64;95528.09;10517922;28;1545;-79
2021/06/30 11:40:59;;;;;;;;;;;20.60;99.90;;;19.91;48.58;95521.94;10536195;28;2070;-77
2021/06/30 11:46:05;;;;;;;;;;;20.80;99.90;;;20.06;48.81;95520.44;10512152;28;1677;-78
2021/06/30 11:51:10;;;;;;;;;;;20.70;99.90;;;19.42;51.04;95523.72;10538300;28;1977;-79
2021/06/30 11:56:14;;;;;;;;;;;20.40;99.90;;;18.68;53.15;95508.16;10511022;28;2034;-77
2021/06/30 12:01:17;;;;;;;;;;;19.90;99.90;;;18.03;56.56;95524.66;10521616;28;1956;-80
2021/06/30 12:06:20;;;;;;;;;;;19.40;99.90;;;17.45;59.26;95517.94;10509299;28;2206;-79
2021/06/30 12:11:24;;;;;;;;;;;18.80;99.90;;;17.08;61.82;95533.03;10508887;28;1576;-78
2021/06/30 12:16:27;;;;;;;;;;;18.40;99.90;;;16.69;63.21;95523.09;10517030;28;1578;-77
2021/06/30 12:21:29;;;;;;;;;;;17.90;99.90;;;16.71;64.61;95527.09;10530821;28;2001;-80
2021/06/30 12:26:32;;;;;;;;;;;17.80;99.90;;;16.69;65.97;95523.09;10525597;28;2004;-79
2021/06/30 12:31:36;;;;;;;;;;;17.80;99.90;;;16.39;73.66;95541.88;10534983;28;2057;-79
2021/06/30 12:36:40;;;;;;;;;;;17.70;99.90;;;15.77;80.21;95546.59;10510046;28;1852;-79
2021/06/30 12:41:47;;;;;;;;;;;17.20;99.90;;;15.26;85.33;95554.09;10526478;28;1582;-80
2021/06/30 12:47:12;;;;;;;;;;;16.80;99.90;;;14.78;91.24;95548.47;10504490;28;1992;-80
2021/06/30 12:52:15;;;;;;;;;;;16.20;99.90;;;14.58;94.37;95555.94;10528892;28;2282;-82
2021/06/30 12:57:22;;;;;;;;;;;15.90;99.90;;;14.44;96.05;95551.59;10533922;28;2338;-79
2021/06/30 13:02:25;;;;;;;;;;;15.60;99.90;;;14.47;96.78;95543.75;10529844;28;1307;-80
2021/06/30 13:07:29;;;;;;;;;;;15.50;99.90;;;14.43;97.46;95531.88;10532174;28;2199;-80
2021/06/30 13:12:32;;;;;;;;;;;15.40;99.90;;;14.57;97.75;95537.31;10522592;28;1606;-80
2021/06/30 13:17:35;;;;;;;;;;;15.40;99.90;;;14.56;92.82;95530.28;10522303;28;1247;-79
2021/06/30 13:22:43;;;;;;;;;;;15.50;99.90;;;14.66;92.66;95542.78;10524965;28;1311;-81
2021/06/30 13:28:45;;;;;;;;;;;15.50;99.90;;;14.95;92.59;95547.81;10527027;28;3129;-80
2021/06/30 13:39:21;;;;;;;;;;;15.80;99.90;;;15.07;90.80;95546.16;10518560;28;2100;-80
2021/06/30 14:01:49;;;;;;;;;;;16.40;99.90;;;16.01;80.09;95524.53;10435539;28;2562;-81
2021/06/30 14:25:06;;;;;;;;;;;18.10;99.90;;;17.72;72.06;95522.22;10322738;28;2133;-83
2021/06/30 14:46:37;;;;;;;;;;;18.80;99.90;;;19.19;64.05;95501.47;10310092;28;2139;-81
2021/06/30 14:51:42;;;;;;;;;;;19.70;99.90;;;19.95;61.01;95495.53;10313808;28;2188;-79
2021/06/30 14:56:45;;;;;;;;;;;20.40;99.90;;;20.09;57.04;95497.94;10307758;28;2534;-78
2021/06/30 15:01:48;;;;;;;;;;;20.90;99.90;;;20.24;56.32;95485.56;10338917;28;2527;-82
2021/06/30 15:06:51;;;;;;;;;;;20.90;99.90;;;20.07;58.30;95497.47;10437579;28;2091;-84
2021/06/30 15:11:54;;;;;;;;;;;20.80;99.90;;;19.71;58.96;95490.06;10446282;28;2066;-84
2021/06/30 15:16:56;;;;;;;;;;;20.60;99.90;;;20.03;55.51;95495.78;10433943;28;2118;-80
2021/06/30 15:21:59;;;;;;;;;;;20.70;99.90;;;19.69;57.59;95492.34;10425019;28;2055;-81
2021/06/30 15:27:02;;;;;;;;;;;20.50;99.90;;;19.52;59.11;95487.03;10420791;28;2192;-81
2021/06/30 15:32:05;;;;;;;;;;;20.40;99.90;;;20.04;57.91;95486.44;10443562;28;2074;-81
2021/06/30 15:37:08;;;;;;;;;;;20.60;99.90;;;20.63;54.06;95491.44;10457972;28;1655;-80
2021/06/30 15:42:13;;;;;;;;;;;20.90;99.90;;;21.95;52.54;95493.16;10451327;28;2022;-80
2021/06/30 15:47:15;;;;;;;;;;;21.70;99.90;;;22.59;49.47;95486.47;10434989;28;1914;-82
2021/06/30 15:52:22;;;;;;;;;;;22.60;99.90;;;22.73;48.95;95477.00;10432031;28;2004;-83
2021/06/30 15:57:25;;;;;;;;;;;23.20;99.90;;;22.30;49.73;95478.75;10435999;28;2045;-82
2021/06/30 16:02:30;;;;;;;;;;;23.20;99.90;;;21.50;49.91;95469.75;10411647;28;1771;-81
2021/06/30 16:07:35;;;;;;;;;;;22.80;99.90;;;21.68;51.45;95470.19;10415874;28;1902;-82
2021/06/30 16:12:39;;;;;;;;;;;22.60;99.90;;;20.94;53.43;95488.88;10429461;28;2046;-83
2021/06/30 16:17:43;;;;;;;;;;;22.20;99.90;;;19.61;56.82;95490.50;10425037;28;1813;-80
2021/06/30 16:22:46;;;;;;;;;;;21.30;99.90;;;18.89;57.80;95490.69;10426408;28;2050;-81
2021/06/30 16:28:08;;;;;;;;;;;20.40;99.90;;;18.71;60.44;95500.13;10408404;28;2093;-81
2021/06/30 16:33:13;;;;;;;;;;;19.90;99.90;;;18.50;66.67;95523.75;10429991;28;1980;-80
2021/06/30 16:38:17;;;;;;;;;;;19.60;99.90;;;17.34;79.18;95538.44;10424404;28;2100;-79
2021/06/30 16:43:20;;;;;;;;;;;19.00;99.90;;;16.78;83.17;95526.63;10424858;28;1998;-80
2021/06/30 16:48:23;;;;;;;;;;;18.30;99.90;;;16.23;86.81;95505.47;10427092;28;1890;-82
2021/06/30 16:53:26;;;;;;;;;;;17.70;99.90;;;16.19;93.16;95485.53;10434760;28;1512;-80
2021/06/30 16:58:30;;;;;;;;;;;17.30;99.90;;;16.37;91.88;95479.00;10466799;28;2098;-84
2021/06/30 17:03:33;;;;;;;;;;;17.20;99.90;;;16.42;87.85;95491.63;10402973;28;1387;-80
2021/06/30 17:08:36;;;;;;;;;;;17.20;99.90;;;16.87;85.57;95494.06;10416398;28;1929;-81
2021/06/30 17:13:41;;;;;;;;;;;17.50;99.90;;;17.25;85.22;95497.69;10414376;28;1310;-82
2021/06/30 17:18:44;;;;;;;;;;;17.90;99.90;;;17.56;76.75;95491.25;10399872;28;1428;-79
2021/06/30 17:23:47;;;;;;;;;;;18.20;99.90;;;17.19;77.57;95504.41;10378390;28;1636;-80
2021/06/30 17:28:51;;;;;;;;;;;18.20;99.90;;;16.90;78.79;95501.56;10403126;28;1909;-80
2021/06/30 17:33:55;;;;;;;;;;;18.00;99.90;;;16.69;78.04;95502.19;10429604;28;2109;-82
2021/06/30 17:38:58;;;;;;;;;;;17.80;99.90;;;16.56;80.77;95492.28;10422528;28;1324;-83
2021/06/30 17:44:01;;;;;;;;;;;17.60;99.90;;;16.16;81.52;95505.94;10408661;28;1653;-82
2021/06/30 17:49:04;;;;;;;;;;;17.40;99.90;;;16.06;80.72;95513.56;10432201;28;1904;-82
2021/06/30 17:54:07;;;;;;;;;;;17.20;99.90;;;15.73;84.54;95529.38;10428160;28;1631;-84
2021/06/30 17:59:16;;;;;;;;;;;17.00;99.90;;;15.47;88.99;95511.06;10414524;28;1949;-82
2021/06/30 18:04:22;;;;;;;;;;;16.70;99.90;;;15.24;88.42;95507.56;10416059;28;1686;-82
2021/06/30 18:09:27;;;;;;;;;;;16.50;99.90;;;15.22;89.76;95511.72;10412983;28;1949;-81
2021/06/30 18:14:33;;;;;;;;;;;16.30;99.90;;;15.11;87.21;95511.16;10426796;28;2063;-82
2021/06/30 18:25:11;;;;;;;;;;;16.20;99.90;;;15.40;89.53;95516.13;10425423;28;2047;-82
2021/06/30 18:30:23;;;;;;;;;;;16.30;99.90;;;15.64;85.69;95513.88;10414764;28;2024;-81
2021/06/30 18:35:31;;;;;;;;;;;16.50;99.90;;;15.62;88.05;95515.28;10390171;28;1761;-81
2021/06/30 18:40:54;;;;;;;;;;;16.60;99.90;;;15.39;88.31;95514.50;10427152;28;1928;-80
2021/06/30 18:51:45;;;;;;;;;;;16.30;99.90;;;14.96;91.06;95511.53;10396548;28;2063;-82
2021/06/30 18:56:52;;;;;;;;;;;16.20;99.90;;;14.81;92.55;95515.38;10424948;28;1977;-80
2021/06/30 19:02:01;;;;;;;;;;;16.00;99.90;;;14.75;91.76;95509.28;10440270;28;1642;-81
2021/06/30 19:07:08;;;;;;;;;;;15.90;99.90;;;14.82;91.17;95516.97;10402316;28;1919;-82
2021/06/30 19:12:11;;;;;;;;;;;15.90;99.90;;;14.78;91.31;95519.50;10427044;28;2016;-82
2021/06/30 19:17:17;;;;;;;;;;;15.90;99.90;;;14.82;91.14;95527.81;10436310;28;1720;-82
2021/06/30 19:22:27;;;;;;;;;;;15.90;99.90;;;14.78;90.37;95533.03;10407459;28;1339;-80
2021/06/30 19:27:40;;;;;;;;;;;15.90;99.90;;;14.85;90.58;95540.72;10435837;28;1343;-81
2021/06/30 19:32:55;;;;;;;;;;;15.90;99.90;;;14.90;88.64;95537.13;10437015;28;1895;-81
2021/06/30 19:38:09;;;;;;;;;;;15.90;99.90;;;14.84;90.15;95548.06;10426536;28;1264;-81
2021/06/30 19:43:14;;;;;;;;;;;15.90;99.90;;;14.86;91.13;95556.66;10430163;28;1627;-80
2021/06/30 19:48:25;;;;;;;;;;;15.90;99.90;;;14.88;89.75;95580.69;10414384;28;1953;-83
2021/06/30 19:53:33;;;;;;;;;;;15.90;99.90;;;14.74;91.42;95577.22;10413122;28;1626;-82
2021/06/30 19:58:41;;;;;;;;;;;15.80;99.90;;;14.64;92.40;95591.81;10415244;28;1555;-83
2021/06/30 20:03:45;;;;;;;;;;;15.70;99.90;;;14.54;93.10;95581.97;10402613;28;1613;-81
2021/06/30 20:08:48;;;;;;;;;;;15.60;99.90;;;14.50;92.75;95586.38;10419639;28;1890;-83
2021/06/30 20:13:51;;;;;;;;;;;15.60;99.90;;;14.44;94.22;95593.00;10397129;28;2039;-82
2021/06/30 20:18:56;;;;;;;;;;;15.50;99.90;;;14.43;94.26;95585.97;10441281;28;2427;-80
2021/06/30 20:23:58;;;;;;;;;;;15.50;99.90;;;14.43;94.58;95580.56;10421451;28;2155;-81
2021/06/30 20:29:02;;;;;;;;;;;15.40;99.90;;;14.34;95.74;95585.09;10409205;28;2499;-81
2021/06/30 20:34:07;;;;;;;;;;;15.40;99.90;;;14.26;97.19;95577.69;10411410;28;2122;-83
2021/06/30 20:39:10;;;;;;;;;;;15.40;99.90;;;14.17;98.48;95582.97;10443445;28;2034;-83
2021/06/30 20:44:13;;;;;;;;;;;15.30;99.90;;;14.07;98.41;95577.78;10432572;28;2043;-84
2021/06/30 20:49:15;;;;;;;;;;;15.20;99.90;;;14.02;100.00;95575.97;10447251;28;2079;-82
2021/06/30 20:54:19;;;;;;;;;;;15.20;99.90;;;14.04;100.00;95584.59;10443433;28;2068;-83
2021/06/30 20:59:22;;;;;;;;;;;15.10;99.90;;;14.04;100.00;95584.59;10434115;28;1359;-83
2021/06/30 21:04:24;;;;;;;;;;;15.10;99.90;;;14.13;100.00;95570.41;10425948;28;1190;-85
2021/06/30 21:09:27;;;;;;;;;;;15.10;99.90;;;14.03;100.00;95564.06;10449047;28;2198;-81
2021/06/30 21:14:31;;;;;;;;;;;15.10;99.90;;;13.99;100.00;95565.75;10429585;28;1300;-80
2021/06/30 21:19:34;;;;;;;;;;;15.10;99.90;;;13.87;100.00;95565.47;10416045;28;1528;-80
2021/06/30 21:24:37;;;;;;;;;;;15.00;99.90;;;13.82;100.00;95570.97;10409833;28;1965;-79
2021/06/30 21:29:39;;;;;;;;;;;14.90;99.90;;;13.86;100.00;95565.75;10420979;28;2209;-80
2021/06/30 21:34:45;;;;;;;;;;;14.90;99.90;;;13.84;100.00;95560.66;10406155;28;2051;-80
2021/06/30 21:39:48;;;;;;;;;;;14.90;99.90;;;13.79;100.00;95561.53;10418091;28;2098;-78
2021/06/30 21:44:51;;;;;;;;;;;14.90;99.90;;;13.81;100.00;95561.28;10425433;28;2078;-82
2021/06/30 21:49:53;;;;;;;;;;;14.80;99.90;;;13.74;100.00;95558.97;10430449;28;2134;-79
2021/06/30 21:54:56;;;;;;;;;;;14.80;99.90;;;13.72;100.00;95557.63;10434536;28;1823;-83
2021/06/30 21:59:59;;;;;;;;;;;14.80;99.90;;;13.73;100.00;95568.13;10415813;28;2302;-79
2021/06/30 22:05:02;;;;;;;;;;;14.80;99.90;;;13.72;100.00;95571.16;10404679;28;2098;-82
2021/06/30 22:10:05;;;;;;;;;;;14.80;99.90;;;13.70;100.00;95574.16;10413322;28;2193;-79
2021/06/30 22:15:08;;;;;;;;;;;14.80;99.90;;;13.66;100.00;95577.75;10413990;28;2145;-80
2021/06/30 22:20:11;;;;;;;;;;;14.70;99.90;;;13.63;100.00;95573.75;10440256;28;1814;-80
2021/06/30 22:25:14;;;;;;;;;;;14.70;99.90;;;13.64;100.00;95569.16;10457230;28;1312;-76
2021/06/30 22:30:17;;;;;;;;;;;14.70;99.90;;;13.64;100.00;95566.44;10447526;28;1988;-78
2021/06/30 22:35:19;;;;;;;;;;;14.70;99.90;;;13.58;100.00;95567.63;10431875;28;1492;-81
2021/06/30 22:40:22;;;;;;;;;;;14.70;99.90;;;13.56;100.00;95577.94;10432706;28;2009;-80
2021/06/30 22:45:25;;;;;;;;;;;14.60;99.90;;;13.59;100.00;95572.72;10454212;28;1924;-82
2021/06/30 22:50:28;;;;;;;;;;;14.60;99.90;;;13.45;100.00;95578.09;10445285;28;1883;-79
2021/06/30 22:55:30;;;;;;;;;;;14.60;99.90;;;13.31;100.00;95598.88;10431522;28;1192;-80
2021/06/30 23:00:33;;;;;;;;;;;14.50;99.90;;;13.07;100.00;95598.13;10438600;28;1361;-76
2021/06/30 23:05:36;;;;;;;;;;;14.20;99.90;;;12.68;100.00;95600.03;10446647;28;2020;-78
2021/06/30 23:10:40;;;;;;;;;;;13.90;99.90;;;12.39;100.00;95600.13;10437788;28;2202;-80
2021/06/30 23:15:43;;;;;;;;;;;13.60;99.90;;;12.29;100.00;95611.06;10441410;28;1229;-78
2021/06/30 23:20:45;;;;;;;;;;;13.40;99.90;;;12.09;100.00;95614.78;10433513;28;2086;-81
2021/06/30 23:25:48;;;;;;;;;;;13.20;99.90;;;12.03;100.00;95617.84;10411356;28;2176;-81
2021/06/30 23:30:51;;;;;;;;;;;13.10;99.90;;;12.08;100.00;95602.38;10410556;28;2146;-80
2021/06/30 23:35:54;;;;;;;;;;;13.10;99.90;;;11.99;100.00;95614.09;10411467;28;2037;-79
2021/06/30 23:40:56;;;;;;;;;;;13.00;99.90;;;11.89;100.00;95615.00;10410531;28;2067;-78
2021/06/30 23:45:59;;;;;;;;;;;13.00;99.90;;;11.92;100.00;95613.63;10408565;28;1520;-79
2021/06/30 23:51:02;;;;;;;;;;;12.90;99.90;;;11.79;100.00;95612.38;10402963;28;2128;-81
2021/06/30 23:56:05;;;;;;;;;;;12.90;99.90;;;11.89;100.00;95612.31;10412381;28;2136;-81
